sensor_id;sensor_type;location;lat;lon;timestamp;pressure;altitude;pressure_sealevel;temperature;humidity
34921;BME280;21128;50.016;20.002;2022-12-07T00:02:28;98403.69;;;1.63;100.00
34921;BME280;21128;50.016;20.002;2022-12-07T00:05:14;98390.64;;;1.64;100.00
34921;BME280;21128;50.016;20.002;2022-12-07T00:08:06;98398.30;;;1.66;100.00
34921;BME280;21128;50.016;20.002;2022-12-07T00:11:07;98393.13;;;1.66;100.00
34921;BME280;21128;50.016;20.002;2022-12-07T00:13:56;98386.29;;;1.65;100.00
34921;BME280;21128;50.016;20.002;2022-12-07T00:16:43;98395.61;;;1.67;100.00
34921;BME280;21128;50.016;20.002;2022-12-07T00:19:29;98397.30;;;1.68;100.00
34921;BME280;21128;50.016;20.002;2022-12-07T00:22:14;98398.86;;;1.71;100.00
34921;BME280;21128;50.016;20.002;2022-12-07T00:25:00;98389.44;;;1.70;100.00
34921;BME280;21128;50.016;20.002;2022-12-07T00:27:46;98391.09;;;1.71;100.00
34921;BME280;21128;50.016;20.002;2022-12-07T00:30:31;98387.67;;;1.71;100.00
34921;BME280;21128;50.016;20.002;2022-12-07T00:33:17;98391.09;;;1.71;100.00
34921;BME280;21128;50.016;20.002;2022-12-07T00:36:06;98395.55;;;1.69;100.00
34921;BME280;21128;50.016;20.002;2022-12-07T00:39:00;98394.61;;;1.70;100.00
34921;BME280;21128;50.016;20.002;2022-12-07T00:41:46;98396.38;;;1.69;100.00
34921;BME280;21128;50.016;20.002;2022-12-07T00:44:32;98392.85;;;1.71;100.00
34921;BME280;21128;50.016;20.002;2022-12-07T00:47:25;98394.61;;;1.70;100.00
34921;BME280;21128;50.016;20.002;2022-12-07T00:50:10;98390.26;;;1.71;100.00
34921;BME280;21128;50.016;20.002;2022-12-07T00:52:58;98388.50;;;1.71;100.00
34921;BME280;21128;50.016;20.002;2022-12-07T00:55:51;98392.95;;;1.69;100.00
34921;BME280;21128;50.016;20.002;2022-12-07T00:58:44;98381.77;;;1.68;100.00
34921;BME280;21128;50.016;20.002;2022-12-07T01:01:36;98376.58;;;1.68;100.00
34921;BME280;21128;50.016;20.002;2022-12-07T01:04:22;98375.66;;;1.69;100.00
34921;BME280;21128;50.016;20.002;2022-12-07T01:07:08;98378.97;;;1.72;100.00
34921;BME280;21128;50.016;20.002;2022-12-07T01:10:00;98381.56;;;1.72;100.00
34921;BME280;21128;50.016;20.002;2022-12-07T01:12:46;98377.41;;;1.69;100.00
34921;BME280;21128;50.016;20.002;2022-12-07T01:15:31;98382.48;;;1.71;100.00
34921;BME280;21128;50.016;20.002;2022-12-07T01:18:17;98379.07;;;1.70;100.00
34921;BME280;21128;50.016;20.002;2022-12-07T01:21:05;98379.07;;;1.70;100.00
34921;BME280;21128;50.016;20.002;2022-12-07T01:23:51;98375.72;;;1.68;100.00
34921;BME280;21128;50.016;20.002;2022-12-07T01:26:38;98370.55;;;1.68;100.00
34921;BME280;21128;50.016;20.002;2022-12-07T01:29:23;98368.05;;;1.66;100.00
34921;BME280;21128;50.016;20.002;2022-12-07T01:32:09;98363.70;;;1.67;100.00
34921;BME280;21128;50.016;20.002;2022-12-07T01:34:55;98370.55;;;1.68;100.00
34921;BME280;21128;50.016;20.002;2022-12-07T01:37:41;98363.53;;;1.70;100.00
34921;BME280;21128;50.016;20.002;2022-12-07T01:40:26;98370.37;;;1.71;100.00
34921;BME280;21128;50.016;20.002;2022-12-07T01:43:17;98367.88;;;1.69;100.00
34921;BME280;21128;50.016;20.002;2022-12-07T01:46:10;98365.36;;;1.68;100.00
34921;BME280;21128;50.016;20.002;2022-12-07T01:48:56;98362.77;;;1.68;100.00
34921;BME280;21128;50.016;20.002;2022-12-07T01:51:43;98362.05;;;1.66;100.00
34921;BME280;21128;50.016;20.002;2022-12-07T01:54:31;98361.95;;;1.67;100.00
34921;BME280;21128;50.016;20.002;2022-12-07T01:57:18;98366.30;;;1.67;100.00
34921;BME280;21128;50.016;20.002;2022-12-07T02:00:11;98361.33;;;1.64;100.00
34921;BME280;21128;50.016;20.002;2022-12-07T02:03:08;98365.05;;;1.60;100.00
34921;BME280;21128;50.016;20.002;2022-12-07T02:05:56;98363.36;;;1.59;100.00
34921;BME280;21128;50.016;20.002;2022-12-07T02:08:45;98356.73;;;1.55;100.00
34921;BME280;21128;50.016;20.002;2022-12-07T02:11:39;98350.00;;;1.52;100.00
34921;BME280;21128;50.016;20.002;2022-12-07T02:14:25;98353.48;;;1.51;100.00
34921;BME280;21128;50.016;20.002;2022-12-07T02:26:47;98355.11;;;1.39;100.00
34921;BME280;21128;50.016;20.002;2022-12-07T02:29:47;98348.27;;;1.38;100.00
34921;BME280;21128;50.016;20.002;2022-12-07T02:35:51;98356.77;;;1.40;100.00
34921;BME280;21128;50.016;20.002;2022-12-07T02:38:58;98347.44;;;1.38;100.00
34921;BME280;21128;50.016;20.002;2022-12-07T02:41:57;98350.13;;;1.36;100.00
34921;BME280;21128;50.016;20.002;2022-12-07T02:44:46;98346.78;;;1.34;100.00
34921;BME280;21128;50.016;20.002;2022-12-07T02:47:39;98344.30;;;1.33;100.00
34921;BME280;21128;50.016;20.002;2022-12-07T02:50:26;98348.55;;;1.34;100.00
34921;BME280;21128;50.016;20.002;2022-12-07T02:53:51;98345.89;;;1.35;100.00
34921;BME280;21128;50.016;20.002;2022-12-07T03:05:59;98332.11;;;1.35;100.00
34921;BME280;21128;50.016;20.002;2022-12-07T03:11:50;98336.63;;;1.31;100.00
34921;BME280;21128;50.016;20.002;2022-12-07T03:15:10;98331.45;;;1.31;100.00
34921;BME280;21128;50.016;20.002;2022-12-07T03:17:59;98331.45;;;1.31;100.00
34921;BME280;21128;50.016;20.002;2022-12-07T03:20:48;98333.95;;;1.33;100.00
34921;BME280;21128;50.016;20.002;2022-12-07T03:23:39;98332.94;;;1.35;100.00
34921;BME280;21128;50.016;20.002;2022-12-07T03:26:38;98330.35;;;1.35;100.00
34921;BME280;21128;50.016;20.002;2022-12-07T03:29:40;98328.66;;;1.34;100.00
34921;BME280;21128;50.016;20.002;2022-12-07T03:32:30;98321.55;;;1.38;100.00
34921;BME280;21128;50.016;20.002;2022-12-07T03:35:26;98321.34;;;1.41;100.00
34921;BME280;21128;50.016;20.002;2022-12-07T03:38:17;98318.66;;;1.43;100.00
34921;BME280;21128;50.016;20.002;2022-12-07T03:41:08;98307.47;;;1.42;100.00
34921;BME280;21128;50.016;20.002;2022-12-07T03:43:56;98317.75;;;1.44;100.00
34921;BME280;21128;50.016;20.002;2022-12-07T03:49:58;98307.41;;;1.44;100.00
34921;BME280;21128;50.016;20.002;2022-12-07T03:52:51;98314.41;;;1.41;100.00
34921;BME280;21128;50.016;20.002;2022-12-07T03:55:42;98307.47;;;1.42;100.00
34921;BME280;21128;50.016;20.002;2022-12-07T03:58:36;98303.88;;;1.45;100.00
34921;BME280;21128;50.016;20.002;2022-12-07T04:01:24;98301.29;;;1.45;100.00
34921;BME280;21128;50.016;20.002;2022-12-07T04:04:10;98302.02;;;1.47;100.00
34921;BME280;21128;50.016;20.002;2022-12-07T04:06:57;98295.91;;;1.48;100.00
34921;BME280;21128;50.016;20.002;2022-12-07T04:09:42;98294.97;;;1.49;100.00
34921;BME280;21128;50.016;20.002;2022-12-07T04:12:34;98297.56;;;1.49;100.00
34921;BME280;21128;50.016;20.002;2022-12-07T04:15:19;98302.73;;;1.49;100.00
34921;BME280;21128;50.016;20.002;2022-12-07T04:18:05;98295.91;;;1.48;100.00
34921;BME280;21128;50.016;20.002;2022-12-07T04:20:51;98294.04;;;1.50;100.00
34921;BME280;21128;50.016;20.002;2022-12-07T04:23:36;98297.28;;;1.53;100.00
34921;BME280;21128;50.016;20.002;2022-12-07T04:26:22;98296.24;;;1.56;100.00
34921;BME280;21128;50.016;20.002;2022-12-07T04:29:08;98294.37;;;1.58;100.00
34921;BME280;21128;50.016;20.002;2022-12-07T04:31:55;98299.45;;;1.59;100.00
34921;BME280;21128;50.016;20.002;2022-12-07T04:34:40;98294.92;;;1.63;100.00
34921;BME280;21128;50.016;20.002;2022-12-07T04:37:26;98287.88;;;1.65;100.00
34921;BME280;21128;50.016;20.002;2022-12-07T04:40:11;98288.70;;;1.65;100.00
34921;BME280;21128;50.016;20.002;2022-12-07T04:42:59;98289.53;;;1.66;100.00
34921;BME280;21128;50.016;20.002;2022-12-07T04:46:08;98291.19;;;1.67;100.00
34921;BME280;21128;50.016;20.002;2022-12-07T04:48:54;98290.25;;;1.68;100.00
34921;BME280;21128;50.016;20.002;2022-12-07T04:51:40;98291.11;;;1.68;100.00
34921;BME280;21128;50.016;20.002;2022-12-07T04:54:33;98281.66;;;1.67;100.00
34921;BME280;21128;50.016;20.002;2022-12-07T04:57:19;98291.01;;;1.70;100.00
34921;BME280;21128;50.016;20.002;2022-12-07T05:00:05;98283.34;;;1.68;100.00
34921;BME280;21128;50.016;20.002;2022-12-07T05:02:51;98290.25;;;1.68;100.00
34921;BME280;21128;50.016;20.002;2022-12-07T05:05:40;98287.59;;;1.69;100.00
34921;BME280;21128;50.016;20.002;2022-12-07T05:08:34;98289.97;;;1.73;100.00
34921;BME280;21128;50.016;20.002;2022-12-07T05:11:26;98280.44;;;1.73;100.00
34921;BME280;21128;50.016;20.002;2022-12-07T05:14:31;98281.16;;;1.75;100.00
34921;BME280;21128;50.016;20.002;2022-12-07T05:17:16;98285.33;;;1.78;100.00
34921;BME280;21128;50.016;20.002;2022-12-07T05:20:02;98274.86;;;1.79;100.00
34921;BME280;21128;50.016;20.002;2022-12-07T05:22:48;98280.66;;;1.83;100.00
34921;BME280;21128;50.016;20.002;2022-12-07T05:25:40;98279.65;;;1.85;100.00
34921;BME280;21128;50.016;20.002;2022-12-07T05:28:26;98283.78;;;1.88;100.00
34921;BME280;21128;50.016;20.002;2022-12-07T05:31:18;98292.17;;;1.91;100.00
34921;BME280;21128;50.016;20.002;2022-12-07T05:34:04;98286.16;;;1.91;100.00
34921;BME280;21128;50.016;20.002;2022-12-07T05:36:50;98289.48;;;1.93;100.00
34921;BME280;21128;50.016;20.002;2022-12-07T05:39:42;98296.42;;;1.92;100.00
34921;BME280;21128;50.016;20.002;2022-12-07T05:42:28;98298.19;;;1.92;100.00
34921;BME280;21128;50.016;20.002;2022-12-07T05:45:13;98297.46;;;1.90;100.00
34921;BME280;21128;50.016;20.002;2022-12-07T05:48:06;98295.70;;;1.90;100.00
34921;BME280;21128;50.016;20.002;2022-12-07T05:50:52;98310.52;;;1.88;100.00
34921;BME280;21128;50.016;20.002;2022-12-07T05:53:37;98297.67;;;1.87;100.00
34921;BME280;21128;50.016;20.002;2022-12-07T05:56:29;98307.21;;;1.86;100.00
34921;BME280;21128;50.016;20.002;2022-12-07T05:59:15;98301.48;;;1.81;100.00
34921;BME280;21128;50.016;20.002;2022-12-07T06:02:11;98305.12;;;1.79;100.00
34921;BME280;21128;50.016;20.002;2022-12-07T06:04:57;98302.63;;;1.77;100.00
34921;BME280;21128;50.016;20.002;2022-12-07T06:07:42;98307.99;;;1.74;100.00
34921;BME280;21128;50.016;20.002;2022-12-07T06:10:28;98299.50;;;1.72;100.00
34921;BME280;21128;50.016;20.002;2022-12-07T06:13:14;98301.37;;;1.70;100.00
34921;BME280;21128;50.016;20.002;2022-12-07T06:16:06;98300.61;;;1.68;100.00
34921;BME280;21128;50.016;20.002;2022-12-07T06:18:52;98315.64;;;1.63;100.00
34921;BME280;21128;50.016;20.002;2022-12-07T06:21:38;98311.50;;;1.60;100.00
34921;BME280;21128;50.016;20.002;2022-12-07T06:24:24;98308.16;;;1.58;100.00
34921;BME280;21128;50.016;20.002;2022-12-07T06:27:10;98310.23;;;1.53;100.00
34921;BME280;21128;50.016;20.002;2022-12-07T06:29:56;98316.41;;;1.51;100.00
34921;BME280;21128;50.016;20.002;2022-12-07T06:32:41;98320.76;;;1.50;100.00
34921;BME280;21128;50.016;20.002;2022-12-07T06:35:27;98319.20;;;1.48;100.00
34921;BME280;21128;50.016;20.002;2022-12-07T06:38:13;98318.48;;;1.46;100.00
34921;BME280;21128;50.016;20.002;2022-12-07T06:40:58;98308.30;;;1.43;100.00
34921;BME280;21128;50.016;20.002;2022-12-07T06:43:44;98310.38;;;1.37;100.00
34921;BME280;21128;50.016;20.002;2022-12-07T06:46:50;98318.31;;;1.34;100.00
34921;BME280;21128;50.016;20.002;2022-12-07T06:49:36;98318.52;;;1.31;100.00
34921;BME280;21128;50.016;20.002;2022-12-07T06:52:22;98322.87;;;1.31;100.00
34921;BME280;21128;50.016;20.002;2022-12-07T06:55:08;98318.52;;;1.31;100.00
34921;BME280;21128;50.016;20.002;2022-12-07T06:57:54;98324.42;;;1.33;100.00
34921;BME280;21128;50.016;20.002;2022-12-07T07:00:39;98327.94;;;1.32;100.00
34921;BME280;21128;50.016;20.002;2022-12-07T07:03:26;98326.08;;;1.34;100.00
34921;BME280;21128;50.016;20.002;2022-12-07T07:06:12;98331.25;;;1.34;100.00
34921;BME280;21128;50.016;20.002;2022-12-07T07:08:58;98332.94;;;1.35;100.00
34921;BME280;21128;50.016;20.002;2022-12-07T07:11:51;98332.84;;;1.37;100.00
34921;BME280;21128;50.016;20.002;2022-12-07T07:14:36;98338.95;;;1.36;100.00
34921;BME280;21128;50.016;20.002;2022-12-07T07:17:22;98335.53;;;1.35;100.00
34921;BME280;21128;50.016;20.002;2022-12-07T07:20:08;98339.02;;;1.34;100.00
34921;BME280;21128;50.016;20.002;2022-12-07T07:22:54;98339.95;;;1.33;100.00
34921;BME280;21128;50.016;20.002;2022-12-07T07:25:41;98333.95;;;1.33;100.00
34921;BME280;21128;50.016;20.002;2022-12-07T07:28:27;98339.87;;;1.35;100.00
34921;BME280;21128;50.016;20.002;2022-12-07T07:31:12;98338.95;;;1.36;100.00
34921;BME280;21128;50.016;20.002;2022-12-07T07:33:58;98341.44;;;1.37;100.00
34921;BME280;21128;50.016;20.002;2022-12-07T07:36:50;98334.60;;;1.36;100.00
34921;BME280;21128;50.016;20.002;2022-12-07T07:39:35;98343.30;;;1.35;100.00
34921;BME280;21128;50.016;20.002;2022-12-07T07:42:21;98332.19;;;1.33;100.00
34921;BME280;21128;50.016;20.002;2022-12-07T07:45:07;98340.78;;;1.34;100.00
34921;BME280;21128;50.016;20.002;2022-12-07T07:48:00;98336.44;;;1.34;100.00
34921;BME280;21128;50.016;20.002;2022-12-07T07:50:45;98340.16;;;1.30;100.00
34921;BME280;21128;50.016;20.002;2022-12-07T07:53:31;98343.02;;;1.26;100.00
34921;BME280;21128;50.016;20.002;2022-12-07T07:56:16;98342.29;;;1.24;100.00
34921;BME280;21128;50.016;20.002;2022-12-07T07:59:03;98346.02;;;1.20;100.00
34921;BME280;21128;50.016;20.002;2022-12-07T08:01:48;98346.84;;;1.20;100.00
34921;BME280;21128;50.016;20.002;2022-12-07T08:04:35;98348.30;;;1.24;100.00
34921;BME280;21128;50.016;20.002;2022-12-07T08:07:21;98343.22;;;1.23;100.00
34921;BME280;21128;50.016;20.002;2022-12-07T08:10:09;98351.91;;;1.22;100.00
34921;BME280;21128;50.016;20.002;2022-12-07T08:13:03;98352.02;;;1.20;100.00
34921;BME280;21128;50.016;20.002;2022-12-07T08:16:09;98359.48;;;1.25;100.00
34921;BME280;21128;50.016;20.002;2022-12-07T08:18:55;98364.48;;;1.28;100.00
34921;BME280;21128;50.016;20.002;2022-12-07T08:21:41;98367.80;;;1.30;100.00
34921;BME280;21128;50.016;20.002;2022-12-07T08:24:35;98361.69;;;1.31;100.00
34921;BME280;21128;50.016;20.002;2022-12-07T08:27:20;98367.70;;;1.31;100.00
34921;BME280;21128;50.016;20.002;2022-12-07T08:30:09;98366.04;;;1.30;100.00
34921;BME280;21128;50.016;20.002;2022-12-07T08:33:02;98373.80;;;1.30;100.00
34921;BME280;21128;50.016;20.002;2022-12-07T08:35:48;98370.48;;;1.28;100.00
34921;BME280;21128;50.016;20.002;2022-12-07T08:38:34;98373.80;;;1.30;100.00
34921;BME280;21128;50.016;20.002;2022-12-07T08:41:20;98374.53;;;1.32;100.00
34921;BME280;21128;50.016;20.002;2022-12-07T08:44:06;98372.77;;;1.33;100.00
34921;BME280;21128;50.016;20.002;2022-12-07T08:47:11;98379.44;;;1.37;100.00
34921;BME280;21128;50.016;20.002;2022-12-07T08:50:06;98377.67;;;1.37;100.00
34921;BME280;21128;50.016;20.002;2022-12-07T08:52:54;98377.47;;;1.40;100.00
34921;BME280;21128;50.016;20.002;2022-12-07T08:55:41;98389.48;;;1.41;100.00
34921;BME280;21128;50.016;20.002;2022-12-07T08:58:26;98377.47;;;1.40;100.00
34921;BME280;21128;50.016;20.002;2022-12-07T09:01:12;98392.01;;;1.43;100.00
34921;BME280;21128;50.016;20.002;2022-12-07T09:03:57;98387.66;;;1.44;100.00
34921;BME280;21128;50.016;20.002;2022-12-07T09:06:43;98382.48;;;1.44;100.00
34921;BME280;21128;50.016;20.002;2022-12-07T09:09:30;98385.59;;;1.49;100.00
34921;BME280;21128;50.016;20.002;2022-12-07T09:12:15;98383.73;;;1.51;100.00
34921;BME280;21128;50.016;20.002;2022-12-07T09:15:01;98387.08;;;1.53;100.00
34921;BME280;21128;50.016;20.002;2022-12-07T09:17:53;98380.86;;;1.55;100.00
34921;BME280;21128;50.016;20.002;2022-12-07T09:20:46;98378.72;;;1.62;100.00
34921;BME280;21128;50.016;20.002;2022-12-07T09:23:31;98378.23;;;1.69;100.00
34921;BME280;21128;50.016;20.002;2022-12-07T09:26:17;98382.38;;;1.72;100.00
34921;BME280;21128;50.016;20.002;2022-12-07T09:29:03;98379.31;;;1.80;100.00
34921;BME280;21128;50.016;20.002;2022-12-07T09:31:49;98371.98;;;1.86;100.00
34921;BME280;21128;50.016;20.002;2022-12-07T09:34:41;98373.32;;;1.92;100.00
34921;BME280;21128;50.016;20.002;2022-12-07T09:37:27;98362.36;;;2.01;100.00
34921;BME280;21128;50.016;20.002;2022-12-07T09:40:21;98360.92;;;2.10;100.00
34921;BME280;21128;50.016;20.002;2022-12-07T09:43:17;98368.20;;;2.17;100.00
34921;BME280;21128;50.016;20.002;2022-12-07T09:46:04;98358.66;;;2.18;100.00
34921;BME280;21128;50.016;20.002;2022-12-07T09:48:56;98366.36;;;2.19;100.00
34921;BME280;21128;50.016;20.002;2022-12-07T09:51:41;98364.88;;;2.15;100.00
34921;BME280;21128;50.016;20.002;2022-12-07T09:54:28;98367.48;;;2.15;100.00
34921;BME280;21128;50.016;20.002;2022-12-07T09:57:15;98358.88;;;2.15;100.00
34921;BME280;21128;50.016;20.002;2022-12-07T10:00:06;98372.77;;;2.14;100.00
34921;BME280;21128;50.016;20.002;2022-12-07T10:02:57;98358.25;;;2.11;100.00
34921;BME280;21128;50.016;20.002;2022-12-07T10:05:51;98358.25;;;2.11;100.00
34921;BME280;21128;50.016;20.002;2022-12-07T10:08:37;98357.32;;;2.12;100.00
34921;BME280;21128;50.016;20.002;2022-12-07T10:11:23;98356.49;;;2.12;100.00
34921;BME280;21128;50.016;20.002;2022-12-07T10:14:13;98341.66;;;2.14;100.00
34921;BME280;21128;50.016;20.002;2022-12-07T10:16:59;98350.70;;;2.21;100.00
34921;BME280;21128;50.016;20.002;2022-12-07T10:19:51;98347.78;;;2.25;100.00
34921;BME280;21128;50.016;20.002;2022-12-07T10:22:37;98339.83;;;2.29;100.00
34921;BME280;21128;50.016;20.002;2022-12-07T10:25:29;98339.50;;;2.33;100.00
34921;BME280;21128;50.016;20.002;2022-12-07T10:28:18;98341.08;;;2.36;100.00
34921;BME280;21128;50.016;20.002;2022-12-07T10:31:17;98338.38;;;2.37;100.00
34921;BME280;21128;50.016;20.002;2022-12-07T10:34:03;98338.78;;;2.31;100.00
34921;BME280;21128;50.016;20.002;2022-12-07T10:36:49;98334.64;;;2.29;100.00
34921;BME280;21128;50.016;20.002;2022-12-07T10:42:32;98330.47;;;2.26;100.00
34921;BME280;21128;50.016;20.002;2022-12-07T10:45:18;98327.69;;;2.29;100.00
34921;BME280;21128;50.016;20.002;2022-12-07T10:48:11;98321.34;;;2.33;100.00
34921;BME280;21128;50.016;20.002;2022-12-07T11:00:24;98310.55;;;2.52;100.00
34921;BME280;21128;50.016;20.002;2022-12-07T11:06:57;98311.72;;;2.61;100.00
34921;BME280;21128;50.016;20.002;2022-12-07T11:10:26;98306.61;;;2.59;100.00
34921;BME280;21128;50.016;20.002;2022-12-07T11:20:22;98299.96;;;2.68;100.00
34921;BME280;21128;50.016;20.002;2022-12-07T11:41:34;98285.95;;;3.20;100.00
34921;BME280;21128;50.016;20.002;2022-12-07T11:44:40;98287.97;;;3.27;100.00
34921;BME280;21128;50.016;20.002;2022-12-07T11:48:07;98292.63;;;3.35;100.00
34921;BME280;21128;50.016;20.002;2022-12-07T11:50:58;98287.50;;;3.46;100.00
34921;BME280;21128;50.016;20.002;2022-12-07T11:57:04;98290.77;;;3.37;100.00
34921;BME280;21128;50.016;20.002;2022-12-07T12:00:02;98279.44;;;3.38;100.00
34921;BME280;21128;50.016;20.002;2022-12-07T12:02:55;98279.31;;;3.39;100.00
34921;BME280;21128;50.016;20.002;2022-12-07T12:05:43;98282.03;;;3.38;100.00
34921;BME280;21128;50.016;20.002;2022-12-07T12:08:40;98278.48;;;3.39;100.00
34921;BME280;21128;50.016;20.002;2022-12-07T12:14:51;98278.14;;;3.44;100.00
34921;BME280;21128;50.016;20.002;2022-12-07T12:18:15;98273.77;;;3.44;100.00
34921;BME280;21128;50.016;20.002;2022-12-07T12:21:12;98265.07;;;3.45;100.00
34921;BME280;21128;50.016;20.002;2022-12-07T12:24:14;98265.07;;;3.45;100.00
34921;BME280;21128;50.016;20.002;2022-12-07T12:27:06;98257.16;;;3.47;100.00
34921;BME280;21128;50.016;20.002;2022-12-07T12:30:29;98259.64;;;3.48;100.00
34921;BME280;21128;50.016;20.002;2022-12-07T12:33:48;98258.58;;;3.51;100.00
34921;BME280;21128;50.016;20.002;2022-12-07T12:39:26;98255.04;;;3.52;100.00
34921;BME280;21128;50.016;20.002;2022-12-07T12:42:18;98249.76;;;3.53;100.00
34921;BME280;21128;50.016;20.002;2022-12-07T12:45:28;98246.30;;;3.53;100.00
34921;BME280;21128;50.016;20.002;2022-12-07T12:48:29;98253.39;;;3.51;100.00
34921;BME280;21128;50.016;20.002;2022-12-07T12:51:39;98248.30;;;3.49;100.00
34921;BME280;21128;50.016;20.002;2022-12-07T12:54:27;98252.80;;;3.47;100.00
34921;BME280;21128;50.016;20.002;2022-12-07T12:57:27;98254.68;;;3.45;100.00
34921;BME280;21128;50.016;20.002;2022-12-07T13:00:18;98264.13;;;3.46;100.00
34921;BME280;21128;50.016;20.002;2022-12-07T13:03:04;98262.36;;;3.47;100.00
34921;BME280;21128;50.016;20.002;2022-12-07T13:06:20;98266.72;;;3.46;100.00
34921;BME280;21128;50.016;20.002;2022-12-07T13:09:21;98260.70;;;3.46;100.00
34921;BME280;21128;50.016;20.002;2022-12-07T13:12:14;98270.47;;;3.42;100.00
34921;BME280;21128;50.016;20.002;2022-12-07T13:15:41;98270.70;;;3.39;100.00
34921;BME280;21128;50.016;20.002;2022-12-07T13:24:07;98258.03;;;3.34;100.00
34921;BME280;21128;50.016;20.002;2022-12-07T13:26:56;98257.20;;;3.34;100.00
34921;BME280;21128;50.016;20.002;2022-12-07T13:29:50;98256.18;;;3.36;100.00
34921;BME280;21128;50.016;20.002;2022-12-07T13:32:36;98262.91;;;3.39;100.00
34921;BME280;21128;50.016;20.002;2022-12-07T13:35:35;98262.91;;;3.39;100.00
34921;BME280;21128;50.016;20.002;2022-12-07T13:38:32;98268.22;;;3.37;100.00
34921;BME280;21128;50.016;20.002;2022-12-07T13:41:21;98269.16;;;3.36;100.00
34921;BME280;21128;50.016;20.002;2022-12-07T13:44:17;98276.95;;;3.36;100.00
34921;BME280;21128;50.016;20.002;2022-12-07T13:47:42;98281.41;;;3.34;100.00
34921;BME280;21128;50.016;20.002;2022-12-07T13:50:31;98284.95;;;3.33;100.00
34921;BME280;21128;50.016;20.002;2022-12-07T13:53:27;98290.25;;;3.32;100.00
34921;BME280;21128;50.016;20.002;2022-12-07T13:56:15;98292.85;;;3.32;100.00
34921;BME280;21128;50.016;20.002;2022-12-07T13:59:02;98282.47;;;3.32;100.00
34921;BME280;21128;50.016;20.002;2022-12-07T14:01:57;98284.34;;;3.30;100.00
34921;BME280;21128;50.016;20.002;2022-12-07T14:04:42;98287.97;;;3.27;100.00
34921;BME280;21128;50.016;20.002;2022-12-07T14:07:28;98290.69;;;3.26;100.00
34921;BME280;21128;50.016;20.002;2022-12-07T14:10:31;98289.74;;;3.27;100.00
34921;BME280;21128;50.016;20.002;2022-12-07T14:13:35;98290.69;;;3.26;100.00
34921;BME280;21128;50.016;20.002;2022-12-07T14:19:56;98293.00;;;3.18;100.00
34921;BME280;21128;50.016;20.002;2022-12-07T14:22:42;98293.45;;;3.12;100.00
34921;BME280;21128;50.016;20.002;2022-12-07T14:25:27;98291.28;;;3.05;100.00
34921;BME280;21128;50.016;20.002;2022-12-07T14:28:29;98286.41;;;3.01;100.00
34921;BME280;21128;50.016;20.002;2022-12-07T14:31:18;98294.53;;;2.96;100.00
34921;BME280;21128;50.016;20.002;2022-12-07T14:34:11;98298.15;;;2.94;100.00
34921;BME280;21128;50.016;20.002;2022-12-07T14:36:57;98296.83;;;2.88;100.00
34921;BME280;21128;50.016;20.002;2022-12-07T14:39:43;98298.91;;;2.83;100.00
34921;BME280;21128;50.016;20.002;2022-12-07T14:42:30;98296.53;;;2.80;100.00
34921;BME280;21128;50.016;20.002;2022-12-07T14:45:19;98300.15;;;2.77;100.00
34921;BME280;21128;50.016;20.002;2022-12-07T14:48:18;98296.65;;;2.78;100.00
34921;BME280;21128;50.016;20.002;2022-12-07T14:51:04;98294.96;;;2.77;100.00
34921;BME280;21128;50.016;20.002;2022-12-07T14:53:56;98291.65;;;2.75;100.00
34921;BME280;21128;50.016;20.002;2022-12-07T14:56:41;98292.48;;;2.76;100.00
34921;BME280;21128;50.016;20.002;2022-12-07T14:59:29;98289.88;;;2.76;100.00
34921;BME280;21128;50.016;20.002;2022-12-07T15:02:15;98287.29;;;2.76;100.00
34921;BME280;21128;50.016;20.002;2022-12-07T15:05:01;98288.23;;;2.75;100.00
34921;BME280;21128;50.016;20.002;2022-12-07T15:07:48;98290.83;;;2.75;100.00
34921;BME280;21128;50.016;20.002;2022-12-07T15:10:34;98290.83;;;2.75;100.00
34921;BME280;21128;50.016;20.002;2022-12-07T15:13:24;98287.40;;;2.74;100.00
34921;BME280;21128;50.016;20.002;2022-12-07T15:16:29;98291.77;;;2.74;100.00
34921;BME280;21128;50.016;20.002;2022-12-07T15:19:23;98296.95;;;2.74;100.00
34921;BME280;21128;50.016;20.002;2022-12-07T15:22:11;98290.11;;;2.73;100.00
34921;BME280;21128;50.016;20.002;2022-12-07T15:24:57;98286.80;;;2.71;100.00
34921;BME280;21128;50.016;20.002;2022-12-07T15:27:43;98292.92;;;2.70;100.00
34921;BME280;21128;50.016;20.002;2022-12-07T15:30:40;98294.77;;;2.68;100.00
34921;BME280;21128;50.016;20.002;2022-12-07T15:33:32;98305.48;;;2.63;100.00
34921;BME280;21128;50.016;20.002;2022-12-07T15:36:21;98295.94;;;2.64;100.00
34921;BME280;21128;50.016;20.002;2022-12-07T15:39:08;98307.25;;;2.63;100.00
34921;BME280;21128;50.016;20.002;2022-12-07T15:41:54;98317.63;;;2.63;100.00
34921;BME280;21128;50.016;20.002;2022-12-07T15:44:40;98310.78;;;2.62;100.00
34921;BME280;21128;50.016;20.002;2022-12-07T15:48:03;98318.56;;;2.62;100.00
34921;BME280;21128;50.016;20.002;2022-12-07T15:50:49;98328.19;;;2.60;100.00
34921;BME280;21128;50.016;20.002;2022-12-07T15:53:35;98322.17;;;2.59;100.00
34921;BME280;21128;50.016;20.002;2022-12-07T15:56:21;98330.78;;;2.60;100.00
34921;BME280;21128;50.016;20.002;2022-12-07T15:59:07;98326.53;;;2.59;100.00
34921;BME280;21128;50.016;20.002;2022-12-07T16:01:52;98322.17;;;2.59;100.00
34921;BME280;21128;50.016;20.002;2022-12-07T16:04:38;98335.14;;;2.59;100.00
34921;BME280;21128;50.016;20.002;2022-12-07T16:07:24;98332.55;;;2.59;100.00
34921;BME280;21128;50.016;20.002;2022-12-07T16:10:09;98336.08;;;2.58;100.00
34921;BME280;21128;50.016;20.002;2022-12-07T16:12:55;98342.09;;;2.59;100.00
34921;BME280;21128;50.016;20.002;2022-12-07T16:15:43;98335.25;;;2.58;100.00
34921;BME280;21128;50.016;20.002;2022-12-07T16:18:28;98341.38;;;2.57;100.00
34921;BME280;21128;50.016;20.002;2022-12-07T16:21:15;98337.13;;;2.56;100.00